SANTA FE DAM CA US current weather conditions

sailwx.info

Wind from 250 at 5 knots gusting 12

Air temperature 37.8° C
Dewpoint 7.6° C

Last reported at 2016-Jul-25 19:57 UTC.
Time now 2016-Jul-25 22:04 UTC

Location: N 34°08' W 117°57'.
View on Google Maps.

See reports from other nearby stations

  
Tides and Currents Weather Stations Pressure Air Temp Water Temp Dewpoint Dewpoint Depression Visibility Wind Speed Wind Dir Waves Ship Positions
date/time (UTC)wind fromknots sea level pressurealtimeterstation pressurevisibilityair tempwater tempwave heightnotes
2016-Jul-25 19:57 250 5 gusting 12 37.8
2016-Jul-25 18:57 239 6 gusting 12 36.1
2016-Jul-25 17:57 205 3 gusting 8 36.1
2016-Jul-25 16:57 156 4 gusting 8 33.3
2016-Jul-25 15:57 018 1 gusting 6 30.6
2016-Jul-25 14:57 093 2 gusting 4 27.2
2016-Jul-25 13:57 271 0 gusting 1 19.4
2016-Jul-25 12:57 167 1 gusting 4 18.9
2016-Jul-25 11:57 193 2 gusting 4 19.4
2016-Jul-25 10:57 321 1 gusting 3 18.9
2016-Jul-25 09:57 221 1 gusting 4 20.6
2016-Jul-25 08:57 252 1 gusting 3 20.0
2016-Jul-25 07:57 274 2 gusting 5 21.7
2016-Jul-25 06:57 233 2 gusting 6 21.7
2016-Jul-25 05:57 238 4 gusting 6 22.8
2016-Jul-25 04:57 243 3 gusting 7 24.4
2016-Jul-25 03:57 236 3 gusting 6 27.2
2016-Jul-25 02:57 218 4 gusting 9 29.4
2016-Jul-25 01:57 240 6 gusting 12 33.9
2016-Jul-25 00:57 225 6 gusting 12 34.4
2016-Jul-24 23:57 225 6 gusting 15 35.6
2016-Jul-24 22:57 249 6 gusting 15 35.6
2016-Jul-24 21:57 221 6 gusting 14 36.1
2016-Jul-24 20:57 221 8 gusting 16 36.7
2016-Jul-24 19:57 242 6 gusting 13 35.0
2016-Jul-24 18:57 236 6 gusting 13 32.8
2016-Jul-24 17:57 258 4 gusting 11 31.7
2016-Jul-24 16:57 236 4 gusting 7 30.6
2016-Jul-24 15:57 273 2 gusting 6 28.9
2016-Jul-24 14:57 268 2 gusting 5 25.6
2016-Jul-24 13:57 225 0 gusting 5 22.2
2016-Jul-24 12:57 342 2 gusting 7 20.0
2016-Jul-24 11:57 280 5 gusting 6 21.7
2016-Jul-24 10:57 209 3 gusting 6 23.3
2016-Jul-24 09:57 355 0 gusting 5 21.1
2016-Jul-24 08:57 130 2 gusting 11 23.9
2016-Jul-24 07:57 059 5 gusting 13 26.1
2016-Jul-24 06:57 032 5 gusting 13 26.1
2016-Jul-24 05:57 028 4 gusting 8 26.1
2016-Jul-24 04:57 017 4 gusting 7 25.0
2016-Jul-24 03:57 227 2 gusting 7 25.0
2016-Jul-24 02:57 221 5 gusting 12 26.7
2016-Jul-24 01:57 237 7 gusting 13 28.3
2016-Jul-24 00:57 227 8 gusting 15 31.7
2016-Jul-23 23:57 234 8 gusting 17 33.9
2016-Jul-23 22:57 238 7 gusting 16 36.1